Time;durP1;ratioP1;P1;durP2;ratioP2;P2;SDS_P1;SDS_P2;PMS_P1;PMS_P2;Temp;Humidity;BMP_temperature;BMP_pressure;BME280_temperature;BME280_humidity;BME280_pressure;Samples;Min_cycle;Max_cycle;Signal;HPM_P1;HPM_P2
2023/01/19 11:28:54;;;;;;;9.13;5.60;;;;;;;3.29;62.61;98816.34;4803954;26;20224;-90
2023/01/19 11:35:50;;;;;;;;;;;;;;;;;;;;;
2023/01/19 11:38:26;;;;;;;5.63;4.30;;;;;;;3.50;62.22;98811.03;4941681;28;20203;-89
2023/01/19 11:40:58;;;;;;;7.05;5.05;;;;;;;3.57;62.12;98811.59;4942228;28;20732;-89
2023/01/19 11:43:34;;;;;;;7.15;4.90;;;;;;;3.61;61.77;98803.56;4957568;28;20539;-91
2023/01/19 11:46:29;;;;;;;;;;;;;;;;;;;;;
2023/01/19 11:49:29;;;;;;;5.95;3.60;;;;;;;3.77;61.52;98804.50;4956924;28;20203;-90
2023/01/19 11:51:57;;;;;;;7.28;3.70;;;;;;;3.86;61.32;98799.78;4958408;28;20247;-91
2023/01/19 11:54:56;;;;;;;;;;;;;;;;;;;;;
2023/01/19 11:57:29;;;;;;;6.40;4.32;;;;;;;3.99;60.88;98798.25;4955967;28;20299;-92
2023/01/19 12:00:25;;;;;;;9.20;4.40;;;;;;;4.05;60.72;98784.97;4959150;28;20222;-92
2023/01/19 12:03:10;;;;;;;4.75;4.25;;;;;;;4.05;60.68;98787.59;4958800;28;20180;-93
2023/01/19 12:06:01;;;;;;;;;;;;;;;;;;;;;
2023/01/19 12:08:56;;;;;;;;;;;;;;;;;;;;;
2023/01/19 12:11:42;;;;;;;6.60;5.80;;;;;;;4.20;60.35;98779.00;4957004;28;20180;-91
2023/01/19 12:14:21;;;;;;;5.38;4.18;;;;;;;4.20;60.30;98781.59;4950391;28;20177;-91
2023/01/19 12:17:13;;;;;;;6.70;4.30;;;;;;;4.16;60.12;98785.28;4960601;28;20190;-91
2023/01/19 12:19:46;;;;;;;7.20;5.55;;;;;;;4.13;60.37;98780.25;4938113;28;20309;-93
2023/01/19 12:22:27;;;;;;;;;;;;;;;;;;;;;
2023/01/19 12:25:19;;;;;;;8.73;5.30;;;;;;;4.15;60.00;98787.94;4944369;28;20271;-91
2023/01/19 12:28:03;;;;;;;;;;;;;;;;;;;;;
2023/01/19 12:30:33;;;;;;;9.77;5.50;;;;;;;4.14;60.02;98781.06;4940480;28;20193;-91
2023/01/19 12:33:58;;;;;;;7.45;4.65;;;;;;;4.12;59.89;98773.34;4953562;28;20424;-92
2023/01/19 12:36:29;;;;;;;8.80;4.97;;;;;;;4.04;59.84;98783.28;4882326;29;20203;-91
2023/01/19 12:39:02;;;;;;;15.45;7.25;;;;;;;4.02;60.23;98776.47;4900679;29;20221;-92
2023/01/19 12:42:13;;;;;;;8.95;5.00;;;;;;;4.03;60.31;98776.41;4941997;28;20387;-91
2023/01/19 12:44:50;;;;;;;;;;;;;;;;;;;;;
2023/01/19 12:47:28;;;;;;;13.23;6.65;;;;;;;4.14;60.29;98775.88;4944501;28;20216;-92
2023/01/19 12:50:28;;;;;;;;;;;;;;;;;;;;;
2023/01/19 12:53:44;;;;;;;;;;;;;;;;;;;;;
2023/01/19 12:56:26;;;;;;;;;;;;;;;;;;;;;
2023/01/19 12:59:21;;;;;;;6.00;3.90;;;;;;;4.27;59.60;98763.94;4960766;28;20191;-91
2023/01/19 13:02:32;;;;;;;3.75;3.40;;;;;;;4.32;59.48;98774.94;4957639;28;20561;-91
2023/01/19 13:05:12;;;;;;;7.60;3.90;;;;;;;4.38;59.37;98769.41;4944775;28;20245;-91
2023/01/19 13:08:13;;;;;;;6.90;4.22;;;;;;;4.52;58.96;98773.91;4943999;28;20191;-92
2023/01/19 13:11:13;;;;;;;;;;;;;;;;;;;;;
2023/01/19 13:14:17;;;;;;;;;;;;;;;;;;;;;
2023/01/19 13:17:03;;;;;;;5.28;3.60;;;;;;;4.55;58.70;98770.31;4960464;28;20188;-92
2023/01/19 13:19:40;;;;;;;5.63;4.80;;;;;;;4.51;59.15;98773.97;4958758;28;20181;-90
2023/01/19 13:22:54;;;;;;;;;;;;;;;;;;;;;
2023/01/19 13:25:50;;;;;;;6.18;4.30;;;;;;;4.48;59.36;98780.16;4961110;28;20221;-91
2023/01/19 13:28:42;;;;;;;5.43;3.67;;;;;;;4.48;59.52;98768.94;4939118;28;20696;-92
2023/01/19 13:31:19;;;;;;;6.43;4.70;;;;;;;4.41;59.25;98776.22;4942474;28;20197;-92
2023/01/19 13:34:06;;;;;;;;;;;;;;;;;;;;;
2023/01/19 13:36:40;;;;;;;6.43;3.40;;;;;;;4.38;59.34;98769.41;4941704;28;20201;-90
2023/01/19 13:39:21;;;;;;;13.00;5.18;;;;;;;4.36;59.55;98775.63;4941565;29;20173;-91
2023/01/19 13:42:03;;;;;;;;;;;;;;;;;;;;;
2023/01/19 13:44:51;;;;;;;;;;;;;;;;;;;;;
2023/01/19 13:47:48;;;;;;;6.10;4.22;;;;;;;4.30;59.73;98770.75;4938116;28;20268;-90
2023/01/19 13:50:41;;;;;;;;;;;;;;;;;;;;;
2023/01/19 13:53:29;;;;;;;8.93;5.15;;;;;;;4.26;59.50;98769.19;4967492;28;20231;-90
2023/01/19 13:56:28;;;;;;;7.03;5.15;;;;;;;4.16;59.70;98769.69;4967573;29;20175;-91
2023/01/19 13:59:26;;;;;;;6.57;5.05;;;;;;;4.11;59.81;98766.47;4960504;28;20262;-91
2023/01/19 14:02:05;;;;;;;5.22;3.92;;;;;;;4.10;59.78;98763.94;4954213;28;20539;-91
2023/01/19 14:05:04;;;;;;;9.60;5.50;;;;;;;4.10;60.21;98769.97;4953800;28;20447;-90
2023/01/19 14:07:32;;;;;;;4.10;3.35;;;;;;;4.06;60.33;98778.84;4944438;29;20458;-91
2023/01/19 14:10:24;;;;;;;9.02;3.10;;;;;;;4.03;60.22;98772.97;4958749;28;20286;-90
2023/01/19 14:13:23;;;;;;;6.80;4.10;;;;;;;3.97;60.33;98780.16;4952412;28;20277;-89
2023/01/19 14:16:08;;;;;;;;;;;;;;;;;;;;;
2023/01/19 14:18:46;;;;;;;4.65;3.22;;;;;;;3.86;60.23;98771.19;4959304;28;20280;-90
2023/01/19 14:21:31;;;;;;;7.07;4.40;;;;;;;3.83;60.44;98779.16;4945126;28;20264;-90
2023/01/19 14:24:22;;;;;;;4.95;2.97;;;;;;;3.73;60.43;98778.78;4954966;28;20276;-90
2023/01/19 14:27:10;;;;;;;6.30;4.20;;;;;;;3.68;60.71;98780.75;4956815;28;20246;-91
2023/01/19 14:29:52;;;;;;;;;;;;;;;;;;;;;
2023/01/19 14:32:32;;;;;;;20.80;4.40;;;;;;;3.60;60.81;98780.28;4957430;28;20205;-92
2023/01/19 14:35:23;;;;;;;7.67;5.87;;;;;;;3.62;60.92;98778.44;4958597;28;20450;-89
2023/01/19 14:38:11;;;;;;;7.28;4.82;;;;;;;3.59;61.25;98776.00;4951695;28;20468;-90
2023/01/19 14:40:57;;;;;;;;;;;;;;;;;;;;;
2023/01/19 14:43:44;;;;;;;5.97;3.15;;;;;;;3.57;60.86;98776.09;4972844;28;20283;-91
2023/01/19 14:46:24;;;;;;;8.55;3.90;;;;;;;3.55;60.99;98778.75;4955650;28;20203;-91
2023/01/19 14:49:00;;;;;;;7.55;4.00;;;;;;;3.53;61.04;98777.13;4958830;28;20201;-90
2023/01/19 14:51:29;;;;;;;6.90;4.07;;;;;;;3.52;61.24;98770.28;4961108;28;20253;-90
2023/01/19 14:54:11;;;;;;;7.28;4.22;;;;;;;3.51;61.16;98777.22;4959737;28;20231;-92
2023/01/19 14:56:54;;;;;;;;;;;;;;;;;;;;;
2023/01/19 14:59:26;;;;;;;7.78;6.68;;;;;;;3.49;60.76;98783.41;4953208;28;20305;-90
2023/01/19 15:01:52;;;;;;;6.13;4.38;;;;;;;3.49;61.34;98779.06;4956220;28;20206;-91
2023/01/19 15:04:24;;;;;;;9.48;4.57;;;;;;;3.49;61.21;98783.41;4957796;28;20940;-91
2023/01/19 15:06:52;;;;;;;4.93;4.43;;;;;;;3.48;61.25;98774.78;4958564;28;20205;-92
2023/01/19 15:09:34;;;;;;;7.03;3.88;;;;;;;3.45;61.26;98772.31;4962447;28;20211;-91
2023/01/19 15:12:10;;;;;;;;;;;;;;;;;;;;;
2023/01/19 15:14:46;;;;;;;7.25;4.28;;;;;;;3.42;61.29;98779.41;4956081;28;20207;-92
2023/01/19 15:17:37;;;;;;;;;;;;;;;;;;;;;
2023/01/19 15:20:22;;;;;;;3.97;2.75;;;;;;;3.43;61.45;98775.88;4954094;28;20227;-90
2023/01/19 15:22:48;;;;;;;5.25;3.35;;;;;;;3.43;61.19;98773.28;4959231;28;20243;-92
2023/01/19 15:25:26;;;;;;;;;;;;;;;;;;;;;
2023/01/19 15:28:10;;;;;;;;;;;;;;;;;;;;;
2023/01/19 15:30:58;;;;;;;;;;;;;;;;;;;;;
2023/01/19 15:33:40;;;;;;;4.45;3.67;;;;;;;3.39;61.54;98777.81;4957909;28;20424;-90
2023/01/19 15:36:22;;;;;;;;;;;;;;;;;;;;;
2023/01/19 15:39:10;;;;;;;5.50;3.80;;;;;;;3.36;61.48;98772.75;4954731;28;20260;-91
2023/01/19 15:41:40;;;;;;;4.85;3.38;;;;;;;3.35;61.67;98778.00;4961582;28;20197;-91
2023/01/19 15:44:17;;;;;;;7.43;3.95;;;;;;;3.37;61.70;98779.63;4929918;28;20362;-90
2023/01/19 15:46:57;;;;;;;;;;;;;;;;;;;;;
2023/01/19 15:49:39;;;;;;;5.40;3.33;;;;;;;3.35;61.80;98770.22;4962208;28;20196;-92
2023/01/19 15:52:23;;;;;;;6.65;4.15;;;;;;;3.33;61.65;98767.72;4962198;28;20272;-91
2023/01/19 15:55:22;;;;;;;;;;;;;;;;;;;;;
2023/01/19 15:58:30;;;;;;;;;;;;;;;;;;;;;
2023/01/19 16:01:10;;;;;;;;;;;;;;;;;;;;;
2023/01/19 16:03:55;;;;;;;8.40;6.13;;;;;;;3.23;62.07;98774.25;4961154;28;20468;-90
2023/01/19 16:07:10;;;;;;;;;;;;;;;;;;;;;
2023/01/19 16:10:19;;;;;;;;;;;;;;;;;;;;;
2023/01/19 16:13:29;;;;;;;8.45;6.28;;;;;;;3.22;62.12;98770.00;4946694;28;20227;-90
2023/01/19 16:16:22;;;;;;;;;;;;;;;;;;;;;
2023/01/19 16:19:24;;;;;;;;;;;;;;;;;;;;;
2023/01/19 16:22:07;;;;;;;7.55;4.25;;;;;;;3.16;61.91;98771.13;4956501;28;20227;-91
2023/01/19 16:24:36;;;;;;;7.00;4.90;;;;;;;3.15;62.14;98779.78;4959180;28;20288;-90
2023/01/19 16:27:25;;;;;;;12.80;5.85;;;;;;;3.15;62.30;98771.19;4956978;28;20205;-89
2023/01/19 16:30:37;;;;;;;;;;;;;;;;;;;;;
2023/01/19 16:33:15;;;;;;;;;;;;;;;;;;;;;
2023/01/19 16:36:28;;;;;;;5.95;3.88;;;;;;;3.15;61.87;98769.41;4959545;28;20237;-91
2023/01/19 16:47:03;;;;;;;;;;;;;;;;;;;;;
2023/01/19 16:50:05;;;;;;;5.75;5.00;;;;;;;3.26;61.94;98761.97;4953774;28;20224;-91
2023/01/19 16:52:59;;;;;;;;;;;;;;;;;;;;;
2023/01/19 16:56:02;;;;;;;11.73;7.57;;;;;;;3.37;61.97;98763.22;4963017;28;20178;-92
2023/01/19 17:02:26;;;;;;;;;;;;;;;;;;;;;
2023/01/19 17:05:22;;;;;;;14.60;9.40;;;;;;;3.51;61.92;98763.38;4963974;28;20633;-91
2023/01/19 17:08:09;;;;;;;11.75;9.90;;;;;;;3.52;61.70;98765.91;4962096;28;20840;-90
2023/01/19 17:11:05;;;;;;;16.45;10.93;;;;;;;3.51;62.05;98771.16;4954738;28;20258;-90
2023/01/19 17:13:58;;;;;;;;;;;;;;;;;;;;;
2023/01/19 17:17:09;;;;;;;;;;;;;;;;;;;;;
2023/01/19 17:20:03;;;;;;;8.10;6.22;;;;;;;3.48;62.34;98766.13;4955696;28;20195;-91
2023/01/19 17:22:44;;;;;;;;;;;;;;;;;;;;;
2023/01/19 17:25:47;;;;;;;;;;;;;;;;;;;;;
2023/01/19 17:28:54;;;;;;;7.40;6.40;;;;;;;3.45;62.58;98761.91;4934453;29;20403;-90
2023/01/19 17:31:45;;;;;;;8.45;5.85;;;;;;;3.42;62.64;98761.25;4919841;29;20206;-91
2023/01/19 17:34:23;;;;;;;14.75;6.72;;;;;;;3.37;62.60;98765.81;4935675;29;20201;-91
2023/01/19 17:37:01;;;;;;;;;;;;;;;;;;;;;
2023/01/19 17:40:39;;;;;;;;;;;;;;;;;;;;;
2023/01/19 17:43:34;;;;;;;;;;;;;;;;;;;;;
2023/01/19 17:57:13;;;;;;;;;;;;;;;;;;;;;
2023/01/19 18:06:59;;;;;;;;;;;;;;;;;;;;;
2023/01/19 18:14:04;;;;;;;8.13;7.32;;;;;;;3.25;63.63;98768.06;4867998;29;20207;-92
2023/01/19 18:16:54;;;;;;;8.98;6.65;;;;;;;3.28;63.25;98770.53;4861621;29;20214;-92
2023/01/19 18:19:35;;;;;;;12.55;8.73;;;;;;;3.30;63.40;98763.50;4882529;29;20702;-92
2023/01/19 18:22:36;;;;;;;;;;;;;;;;;;;;;
2023/01/19 18:29:15;;;;;;;;;;;;;;;;;;;;;
2023/01/19 18:32:23;;;;;;;;;;;;;;;;;;;;;
2023/01/19 18:35:28;;;;;;;;;;;;;;;;;;;;;
2023/01/19 18:38:19;;;;;;;;;;;;;;;;;;;;;
2023/01/19 18:41:12;;;;;;;13.02;7.68;;;;;;;3.26;63.86;98756.78;4970125;28;20202;-90
2023/01/19 18:43:53;;;;;;;8.00;7.20;;;;;;;3.13;64.13;98760.84;4976438;28;20403;-91
2023/01/19 18:47:19;;;;;;;8.50;7.30;;;;;;;2.96;64.81;98758.22;4975962;28;20220;-91
2023/01/19 18:50:12;;;;;;;;;;;;;;;;;;;;;
2023/01/19 18:52:51;;;;;;;11.57;8.98;;;;;;;2.95;64.86;98757.38;4981975;28;20188;-91
2023/01/19 18:55:35;;;;;;;9.07;7.47;;;;;;;3.00;64.59;98760.59;4974724;28;20183;-90
2023/01/19 18:58:32;;;;;;;;;;;;;;;;;;;;;
2023/01/19 19:01:43;;;;;;;;;;;;;;;;;;;;;
2023/01/19 19:04:35;;;;;;;9.93;6.40;;;;;;;2.95;64.94;98759.97;4981207;28;20209;-90
2023/01/19 19:07:25;;;;;;;;;;;;;;;;;;;;;
2023/01/19 19:10:04;;;;;;;;;;;;;;;;;;;;;
2023/01/19 19:13:07;;;;;;;8.57;5.80;;;;;;;3.02;65.01;98752.72;4973542;28;20215;-90
2023/01/19 19:15:55;;;;;;;;;;;;;;;;;;;;;
2023/01/19 19:19:19;;;;;;;9.40;7.57;;;;;;;3.04;65.09;98751.75;4967231;28;20207;-91
2023/01/19 19:22:18;;;;;;;;;;;;;;;;;;;;;
2023/01/19 19:24:49;;;;;;;8.95;7.88;;;;;;;2.98;65.45;98752.03;4952589;28;20223;-89
2023/01/19 19:30:40;;;;;;;8.88;6.50;;;;;;;2.97;65.53;98749.50;4958215;28;20239;-91
2023/01/19 19:33:31;;;;;;;;;;;;;;;;;;;;;
2023/01/19 19:36:25;;;;;;;10.40;6.70;;;;;;;2.98;65.97;98759.84;4975151;28;20190;-90
2023/01/19 19:39:04;;;;;;;14.23;7.10;;;;;;;2.95;65.76;98748.75;4975634;28;20665;-91
2023/01/19 19:41:43;;;;;;;;;;;;;;;;;;;;;
2023/01/19 19:44:14;;;;;;;9.98;7.35;;;;;;;2.90;66.35;98759.34;4960917;28;20287;-90
2023/01/19 19:46:54;;;;;;;16.63;7.90;;;;;;;2.86;66.09;98755.19;4969039;28;20549;-91
2023/01/19 19:49:33;;;;;;;11.43;8.07;;;;;;;2.77;66.71;98750.44;4967977;28;20206;-90
2023/01/19 19:52:04;;;;;;;12.23;6.95;;;;;;;2.67;67.05;98752.59;4958452;28;20190;-91
2023/01/19 19:54:37;;;;;;;16.02;9.80;;;;;;;2.61;67.35;98752.88;4977625;28;20190;-90
2023/01/19 19:57:28;;;;;;;;;;;;;;;;;;;;;
2023/01/19 20:00:16;;;;;;;8.00;6.57;;;;;;;2.43;67.88;98754.53;4974867;28;20600;-89
2023/01/19 20:03:22;;;;;;;;;;;;;;;;;;;;;
2023/01/19 20:06:18;;;;;;;12.25;9.63;;;;;;;2.37;68.72;98758.22;4974090;28;20486;-89
2023/01/19 20:09:04;;;;;;;12.32;8.95;;;;;;;2.39;69.40;98763.38;4971405;28;20690;-91
2023/01/19 20:11:30;;;;;;;8.23;7.25;;;;;;;2.43;69.14;98762.31;4970831;28;20201;-90
2023/01/19 20:14:17;;;;;;;9.20;6.20;;;;;;;2.47;68.62;98766.47;4959207;28;20777;-90
2023/01/19 20:17:05;;;;;;;6.53;5.78;;;;;;;2.47;68.46;98771.66;4957967;28;20177;-90
2023/01/19 20:19:53;;;;;;;6.60;5.30;;;;;;;2.50;68.42;98768.06;4981237;28;20578;-90
2023/01/19 20:22:18;;;;;;;16.92;8.10;;;;;;;2.52;68.15;98774.88;4978140;28;20192;-91
2023/01/19 20:24:57;;;;;;;7.57;5.57;;;;;;;2.54;68.49;98772.19;4977073;28;20187;-91
2023/01/19 20:27:40;;;;;;;;;;;;;;;;;;;;;
2023/01/19 20:30:27;;;;;;;;;;;;;;;;;;;;;
2023/01/19 20:33:01;;;;;;;9.45;7.63;;;;;;;2.43;68.34;98776.13;4984741;28;20199;-89
2023/01/19 20:36:14;;;;;;;9.95;6.05;;;;;;;2.41;68.87;98774.50;4981465;28;20216;-90
2023/01/19 20:39:08;;;;;;;7.03;6.03;;;;;;;2.36;68.86;98776.47;4980508;28;20205;-89
2023/01/19 20:42:15;;;;;;;;;;;;;;;;;;;;;
2023/01/19 20:45:10;;;;;;;;;;;;;;;;;;;;;
2023/01/19 20:48:07;;;;;;;7.63;6.60;;;;;;;2.39;68.63;98779.75;4969903;28;20195;-91
2023/01/19 20:50:44;;;;;;;10.82;7.28;;;;;;;2.46;68.46;98777.75;4976092;28;20200;-90
2023/01/19 20:53:27;;;;;;;10.73;8.15;;;;;;;2.50;68.40;98779.28;4979237;28;20541;-91
2023/01/19 20:56:16;;;;;;;13.90;8.27;;;;;;;2.51;68.62;98786.16;4986378;28;20187;-90
2023/01/19 20:59:02;;;;;;;;;;;;;;;;;;;;;
2023/01/19 21:01:47;;;;;;;;;;;;;;;;;;;;;
2023/01/19 21:05:19;;;;;;;;;;;;;;;;;;;;;
2023/01/19 21:08:20;;;;;;;;;;;;;;;;;;;;;
2023/01/19 21:11:22;;;;;;;;;;;;;;;;;;;;;
2023/01/19 21:14:48;;;;;;;;;;;;;;;;;;;;;
2023/01/19 21:21:39;;;;;;;8.35;5.72;;;;;;;2.37;68.94;98807.47;4948497;28;20237;-89
2023/01/19 21:24:47;;;;;;;;;;;;;;;;;;;;;
2023/01/19 21:28:20;;;;;;;;;;;;;;;;;;;;;
2023/01/19 21:31:19;;;;;;;;;;;;;;;;;;;;;
2023/01/19 21:34:46;;;;;;;10.02;7.53;;;;;;;2.33;68.89;98818.91;4979687;28;20268;-90
2023/01/19 21:37:46;;;;;;;;;;;;;;;;;;;;;
2023/01/19 21:40:38;;;;;;;8.00;5.88;;;;;;;2.28;68.80;98823.44;4957184;28;20189;-90
2023/01/19 21:43:18;;;;;;;8.65;7.03;;;;;;;2.29;69.13;98819.91;4975528;28;20778;-91
2023/01/19 21:46:41;;;;;;;;;;;;;;;;;;;;;
2023/01/19 21:49:37;;;;;;;;;;;;;;;;;;;;;
2023/01/19 21:53:08;;;;;;;;;;;;;;;;;;;;;
2023/01/19 21:55:59;;;;;;;7.97;6.50;;;;;;;2.33;68.93;98837.03;4959272;28;20545;-90
2023/01/19 21:59:07;;;;;;;;;;;;;;;;;;;;;
2023/01/19 22:02:08;;;;;;;;;;;;;;;;;;;;;
2023/01/19 22:04:44;;;;;;;7.53;6.82;;;;;;;2.27;69.04;98842.50;4966625;28;20233;-90
2023/01/19 22:07:14;;;;;;;11.80;6.90;;;;;;;2.27;69.21;98850.25;4971594;28;20627;-90
2023/01/19 22:09:50;;;;;;;;;;;;;;;;;;;;;
2023/01/19 22:12:28;;;;;;;8.90;6.50;;;;;;;2.25;69.53;98851.22;4964816;28;20204;-91
2023/01/19 22:15:12;;;;;;;10.73;6.63;;;;;;;2.22;69.52;98857.38;4959313;28;20727;-91
2023/01/19 22:17:44;;;;;;;10.65;7.80;;;;;;;2.13;70.00;98845.66;4959329;28;20253;-92
2023/01/19 22:20:15;;;;;;;7.07;6.35;;;;;;;2.09;70.11;98859.63;4971728;28;20221;-89
2023/01/19 22:22:58;;;;;;;12.30;6.78;;;;;;;2.07;69.90;98858.00;4972811;28;20347;-91
2023/01/19 22:25:28;;;;;;;9.52;7.35;;;;;;;2.09;69.81;98856.19;4945177;28;20671;-89
2023/01/19 22:28:19;;;;;;;9.85;7.10;;;;;;;2.12;70.18;98863.84;4972423;28;20715;-90
2023/01/19 22:30:45;;;;;;;9.50;7.10;;;;;;;2.15;70.11;98868.88;4958362;28;20318;-89
2023/01/19 22:33:10;;;;;;;10.40;7.50;;;;;;;2.17;69.87;98864.50;4977073;28;20309;-90
2023/01/19 22:35:36;;;;;;;7.93;7.07;;;;;;;2.18;69.85;98861.81;4962141;28;20430;-90
2023/01/19 22:38:03;;;;;;;11.17;7.33;;;;;;;2.20;70.22;98866.97;4959955;28;20234;-91
2023/01/19 22:40:37;;;;;;;10.05;7.00;;;;;;;2.17;69.90;98873.09;4974034;28;20175;-89
2023/01/19 22:43:12;;;;;;;9.23;6.13;;;;;;;2.15;69.85;98861.13;4977164;28;20204;-91
2023/01/19 22:45:48;;;;;;;11.27;6.50;;;;;;;2.15;70.04;98861.13;4959723;28;20192;-89
2023/01/19 22:48:21;;;;;;;9.35;7.53;;;;;;;2.13;70.49;98870.69;4977089;28;20563;-89
2023/01/19 22:50:54;;;;;;;7.30;5.90;;;;;;;2.10;70.75;98873.41;4978120;28;20594;-89
2023/01/19 22:53:29;;;;;;;11.98;7.28;;;;;;;2.05;70.74;98870.16;4979411;28;20869;-89
2023/01/19 22:56:23;;;;;;;13.65;9.45;;;;;;;2.03;70.90;98874.59;4976965;28;20189;-90
2023/01/19 22:58:56;;;;;;;14.18;7.90;;;;;;;2.01;70.68;98882.41;4983499;28;20194;-91
2023/01/19 23:01:30;;;;;;;9.35;6.88;;;;;;;2.02;71.07;98883.25;4998256;28;20187;-90
2023/01/19 23:04:03;;;;;;;17.60;6.32;;;;;;;2.05;70.86;98880.53;4970467;28;20197;-90
2023/01/19 23:06:38;;;;;;;10.93;7.05;;;;;;;2.10;70.79;98876.00;4961752;28;20214;-90
2023/01/19 23:09:12;;;;;;;13.73;7.13;;;;;;;2.10;70.83;98876.00;4976800;28;20206;-91
2023/01/19 23:11:49;;;;;;;10.27;5.95;;;;;;;2.08;70.67;98883.00;4974782;28;20220;-89
2023/01/19 23:14:30;;;;;;;7.13;6.03;;;;;;;2.10;70.54;98881.19;4975464;28;20201;-90
2023/01/19 23:17:01;;;;;;;10.65;8.60;;;;;;;2.12;70.55;98885.41;4976596;28;20287;-91
2023/01/19 23:19:40;;;;;;;;;;;;;;;;;;;;;
2023/01/19 23:22:15;;;;;;;;;;;;;;;;;;;;;
2023/01/19 23:24:49;;;;;;;15.85;8.98;;;;;;;2.15;70.59;98887.03;4972978;28;20217;-90
2023/01/19 23:27:22;;;;;;;12.55;9.30;;;;;;;2.16;70.64;98889.56;4977841;28;20221;-90
2023/01/19 23:29:51;;;;;;;11.98;8.60;;;;;;;2.18;70.89;98890.31;4976148;28;20193;-89
2023/01/19 23:32:24;;;;;;;10.65;9.15;;;;;;;2.18;70.83;98892.06;4961456;28;20202;-88
2023/01/19 23:35:15;;;;;;;11.68;9.25;;;;;;;2.17;70.63;98893.84;4978384;28;20183;-90
2023/01/19 23:37:43;;;;;;;10.35;8.55;;;;;;;2.20;70.90;98896.28;4976971;28;20187;-90
2023/01/19 23:40:13;;;;;;;11.55;8.45;;;;;;;2.26;70.69;98897.78;4979113;28;20631;-91
2023/01/19 23:42:39;;;;;;;13.57;10.50;;;;;;;2.28;70.59;98901.16;4980703;28;20220;-90
2023/01/19 23:45:15;;;;;;;14.23;8.73;;;;;;;2.32;70.31;98896.69;4976074;28;20201;-89
2023/01/19 23:47:51;;;;;;;9.10;6.85;;;;;;;2.32;70.61;98894.09;4962270;28;20206;-89
2023/01/19 23:50:17;;;;;;;11.07;7.17;;;;;;;2.32;70.58;98907.06;4978236;28;20202;-90
2023/01/19 23:53:00;;;;;;;7.50;6.78;;;;;;;2.32;70.56;98902.75;4978075;28;20239;-90
2023/01/19 23:55:37;;;;;;;11.90;6.47;;;;;;;2.33;70.57;98904.41;4983049;28;20191;-89
2023/01/19 23:58:10;;;;;;;8.80;6.25;;;;;;;2.34;70.58;98902.66;4981763;28;20392;-90
